Time;durP1;ratioP1;P1;durP2;ratioP2;P2;SDS_P1;SDS_P2;PMS_P1;PMS_P2;Temp;Humidity;BMP_temperature;BMP_pressure;BME280_temperature;BME280_humidity;BME280_pressure;Samples;Min_cycle;Max_cycle;Signal;HPM_P1;HPM_P2
2021/03/17 00:01:00;;;;;;;1.70;1.60;;;3.20;99.90;;;;;;5048967;28;20460;-93
2021/03/17 00:03:28;;;;;;;2.77;2.20;;;3.30;99.90;;;;;;5050518;28;20474;-90
2021/03/17 00:05:54;;;;;;;1.80;1.53;;;3.20;99.90;;;;;;5046982;28;20442;-89
2021/03/17 00:08:21;;;;;;;2.10;1.67;;;3.20;99.90;;;;;;5051864;28;20451;-91
2021/03/17 00:10:50;;;;;;;1.93;1.67;;;3.20;99.90;;;;;;5047601;28;20447;-89
2021/03/17 00:13:18;;;;;;;1.50;1.40;;;3.20;99.90;;;;;;5046938;28;20452;-92
2021/03/17 00:15:44;;;;;;;2.07;1.70;;;3.50;99.90;;;;;;5042090;28;20447;-92
2021/03/17 00:18:13;;;;;;;1.80;1.63;;;3.20;99.90;;;;;;5041044;28;20764;-91
2021/03/17 00:20:41;;;;;;;2.10;1.83;;;3.10;99.90;;;;;;5042765;28;20448;-89
2021/03/17 00:23:07;;;;;;;5.07;2.00;;;3.10;99.90;;;;;;5044505;28;20471;-92
2021/03/17 00:25:35;;;;;;;2.70;2.00;;;3.20;99.90;;;;;;5045428;28;20462;-90
2021/03/17 00:28:02;;;;;;;2.60;1.50;;;3.20;99.90;;;;;;5046759;28;20490;-92
2021/03/17 00:30:29;;;;;;;2.40;1.70;;;3.20;99.90;;;;;;5025480;28;20451;-92
2021/03/17 00:32:56;;;;;;;1.97;1.50;;;3.30;99.90;;;;;;5043009;28;20459;-92
2021/03/17 00:35:23;;;;;;;3.53;2.00;;;3.20;99.90;;;;;;5042853;28;20458;-91
2021/03/17 00:37:50;;;;;;;2.03;1.87;;;3.20;99.90;;;;;;5044509;28;20447;-95
2021/03/17 00:40:17;;;;;;;2.40;1.47;;;3.30;99.90;;;;;;5043599;28;20458;-90
2021/03/17 00:42:43;;;;;;;1.93;1.73;;;3.30;99.90;;;;;;5046059;28;20455;-90
2021/03/17 00:45:10;;;;;;;1.50;1.40;;;3.30;99.90;;;;;;5045691;28;20451;-89
2021/03/17 00:47:37;;;;;;;2.20;1.83;;;3.30;99.90;;;;;;5042869;28;20549;-89
2021/03/17 00:50:04;;;;;;;2.20;1.70;;;3.40;99.90;;;;;;5044685;28;20991;-90
2021/03/17 00:52:31;;;;;;;2.50;1.90;;;3.30;99.90;;;;;;5047347;28;20436;-90
2021/03/17 00:54:58;;;;;;;1.90;1.70;;;3.30;99.90;;;;;;5047780;28;20451;-90
2021/03/17 00:57:24;;;;;;;2.43;2.00;;;3.30;99.90;;;;;;5047943;28;20442;-90
2021/03/17 00:59:51;;;;;;;2.60;2.33;;;3.30;99.90;;;;;;5048863;28;20799;-91
2021/03/17 01:02:17;;;;;;;3.13;1.90;;;3.30;99.90;;;;;;5049227;28;20440;-88
2021/03/17 01:04:43;;;;;;;2.70;1.90;;;3.20;99.90;;;;;;5046910;28;20454;-88
2021/03/17 01:07:12;;;;;;;2.50;2.07;;;3.20;99.90;;;;;;5048215;28;21029;-90
2021/03/17 01:09:38;;;;;;;2.90;2.60;;;3.20;99.90;;;;;;5053645;28;20443;-88
2021/03/17 01:12:17;;;;;;;4.80;2.17;;;3.20;99.90;;;;;;5042501;22;20492;-90
2021/03/17 01:14:45;;;;;;;2.07;1.83;;;3.10;99.90;;;;;;5048466;22;20480;-86
2021/03/17 01:17:26;;;;;;;2.50;2.30;;;3.10;99.90;;;;;;5049371;22;20507;-89
2021/03/17 01:19:53;;;;;;;6.43;2.93;;;3.30;99.90;;;;;;5033488;28;20439;-89
2021/03/17 01:22:22;;;;;;;5.80;2.73;;;3.00;99.90;;;;;;5057535;22;20482;-89
2021/03/17 01:24:49;;;;;;;2.83;2.60;;;;;;;;;;5054577;28;20469;-88
2021/03/17 01:29:57;;;;;;;4.30;2.80;;;3.00;99.90;;;;;;5084274;22;20482;-88
2021/03/17 01:32:23;;;;;;;4.07;3.00;;;;;;;;;;5159618;23;20252;-87
2021/03/17 01:34:50;;;;;;;3.00;2.50;;;;;;;;;;5055522;28;20450;-86
2021/03/17 01:39:51;;;;;;;4.07;2.50;;;2.90;99.90;;;;;;5053719;22;20485;-88
2021/03/17 01:42:21;;;;;;;5.60;3.00;;;2.80;99.90;;;;;;5088860;23;20513;-87
2021/03/17 01:44:47;;;;;;;4.37;2.60;;;2.80;99.90;;;;;;5057201;28;20430;-89
2021/03/17 01:47:14;;;;;;;3.70;3.23;;;2.80;99.90;;;;;;5056499;28;20479;-90
2021/03/17 01:49:41;;;;;;;4.03;2.70;;;2.80;99.90;;;;;;5055877;28;20445;-89
2021/03/17 01:52:07;;;;;;;3.23;2.87;;;2.80;99.90;;;;;;5055971;28;20437;-92
2021/03/17 01:54:34;;;;;;;4.40;2.83;;;;;;;;;;5062912;23;20446;-88
2021/03/17 01:57:00;;;;;;;2.70;2.43;;;;;;;;;;5055578;28;20550;-89
2021/03/17 01:59:28;;;;;;;3.40;2.60;;;2.60;99.90;;;;;;5061805;23;20483;-89
2021/03/17 02:01:55;;;;;;;3.33;2.93;;;2.80;99.90;;;;;;5055284;28;20426;-89
2021/03/17 02:04:22;;;;;;;4.20;3.30;;;2.70;99.90;;;;;;5053933;28;20918;-89
2021/03/17 02:06:51;;;;;;;4.43;3.07;;;2.80;99.90;;;;;;5097296;23;20493;-92
2021/03/17 02:09:17;;;;;;;3.70;2.87;;;2.90;99.90;;;;;;5091999;28;20445;-91
2021/03/17 02:11:53;;;;;;;3.20;2.90;;;3.00;99.90;;;;;;5094021;28;20430;-90
2021/03/17 02:14:35;;;;;;;3.33;2.87;;;3.00;99.90;;;;;;5090844;28;20449;-93
2021/03/17 02:17:07;;;;;;;3.67;2.93;;;3.00;99.90;;;;;;5094092;28;20425;-87
2021/03/17 02:20:30;;;;;;;3.50;2.80;;;3.00;99.90;;;;;;5072582;22;20502;-88
2021/03/17 02:23:03;;;;;;;3.00;2.70;;;3.00;99.90;;;;;;5036546;28;20536;-94
2021/03/17 02:26:03;;;;;;;3.73;2.93;;;2.90;99.90;;;;;;5034008;28;20467;-90
2021/03/17 02:28:42;;;;;;;3.87;3.00;;;2.80;99.90;;;;;;5023572;22;20443;-88
2021/03/17 02:31:44;;;;;;;2.80;2.50;;;2.90;99.90;;;;;;5034414;28;20448;-89
2021/03/17 02:34:15;;;;;;;2.77;2.20;;;2.80;99.90;;;;;;5034695;28;20440;-87
2021/03/17 02:36:46;;;;;;;3.77;2.80;;;2.80;99.90;;;;;;5051529;22;20498;-89
2021/03/17 02:39:16;;;;;;;2.60;2.37;;;2.80;99.90;;;;;;5054975;28;20408;-90
2021/03/17 02:41:46;;;;;;;2.97;2.50;;;3.00;99.90;;;;;;5061391;22;20495;-89
2021/03/17 02:44:17;;;;;;;2.73;2.43;;;2.80;99.90;;;;;;5054572;28;20441;-92
2021/03/17 02:46:45;;;;;;;4.67;3.37;;;3.00;99.90;;;;;;5053656;28;20486;-89
2021/03/17 02:49:17;;;;;;;3.60;3.03;;;2.80;99.90;;;;;;5054770;28;20418;-89
2021/03/17 02:51:48;;;;;;;3.70;3.27;;;2.70;99.90;;;;;;5060462;22;20490;-90
2021/03/17 02:54:17;;;;;;;3.90;3.27;;;2.80;99.90;;;;;;5057155;28;20412;-90
2021/03/17 02:56:48;;;;;;;3.67;3.00;;;2.80;99.90;;;;;;5057318;28;20466;-87
2021/03/17 02:59:17;;;;;;;4.47;3.00;;;2.80;99.90;;;;;;5080114;22;20989;-90
2021/03/17 03:01:45;;;;;;;4.33;3.13;;;2.80;99.90;;;;;;5057711;28;20945;-88
2021/03/17 03:04:14;;;;;;;4.33;3.20;;;2.80;99.90;;;;;;5058191;28;20440;-90
2021/03/17 03:06:44;;;;;;;4.07;3.00;;;2.80;99.90;;;;;;5058648;28;20467;-90
2021/03/17 03:09:11;;;;;;;4.20;2.93;;;2.70;99.90;;;;;;5058336;28;20439;-90
2021/03/17 03:11:54;;;;;;;3.33;2.77;;;2.70;99.90;;;;;;5064668;22;20491;-91
2021/03/17 03:14:21;;;;;;;3.73;3.13;;;2.70;99.90;;;;;;5054850;28;20442;-91
2021/03/17 03:16:49;;;;;;;4.20;2.80;;;2.60;99.90;;;;;;5057568;28;20930;-92
2021/03/17 03:19:18;;;;;;;3.40;2.73;;;2.70;99.90;;;;;;5057783;28;20424;-90
2021/03/17 03:21:46;;;;;;;3.60;3.17;;;2.90;99.90;;;;;;5057603;28;20561;-91
2021/03/17 03:24:13;;;;;;;3.07;2.67;;;2.80;99.90;;;;;;5064201;22;20483;-90
2021/03/17 03:26:40;;;;;;;4.90;3.10;;;;;;;;;;5057041;28;20483;-92
2021/03/17 03:29:07;;;;;;;4.23;2.63;;;;;;;;;;5058374;28;20444;-90
2021/03/17 03:31:33;;;;;;;3.40;2.57;;;;;;;;;;5056930;28;20434;-90
2021/03/17 03:34:00;;;;;;;3.90;3.10;;;;;;;;;;5071120;22;20494;-92
2021/03/17 03:36:44;;;;;;;4.17;2.63;;;2.50;99.90;;;;;;5065822;22;20406;-88
2021/03/17 03:39:11;;;;;;;4.17;2.97;;;;;;;;;;5038960;28;20456;-91
2021/03/17 03:41:38;;;;;;;4.20;3.13;;;;;;;;;;5037073;28;20449;-89
2021/03/17 03:44:05;;;;;;;3.20;2.47;;;2.60;99.90;;;;;;5038555;28;20444;-91
2021/03/17 03:49:00;;;;;;;3.77;3.23;;;2.70;99.90;;;;;;5068273;22;20518;-91
2021/03/17 03:51:27;;;;;;;4.87;2.73;;;;;;;;;;5057802;28;20200;-93
2021/03/17 03:54:08;;;;;;;4.13;3.20;;;2.70;99.90;;;;;;5057695;28;20435;-90
2021/03/17 03:56:39;;;;;;;4.87;3.40;;;2.70;99.90;;;;;;5057781;28;20436;-90
2021/03/17 03:59:09;;;;;;;4.67;3.33;;;2.70;99.90;;;;;;5057780;28;20454;-89
2021/03/17 04:01:43;;;;;;;11.30;3.40;;;2.70;99.90;;;;;;5057073;28;20432;-92
2021/03/17 04:04:11;;;;;;;4.77;3.07;;;2.70;99.90;;;;;;5056523;28;20464;-91
2021/03/17 04:06:37;;;;;;;4.00;3.47;;;2.70;99.90;;;;;;5057140;28;20456;-89
2021/03/17 04:09:07;;;;;;;5.37;4.23;;;2.60;99.90;;;;;;5056811;28;20446;-88
2021/03/17 04:11:34;;;;;;;5.50;3.57;;;2.70;99.90;;;;;;5055295;28;20442;-90
2021/03/17 04:14:05;;;;;;;4.63;3.70;;;2.70;99.90;;;;;;5056597;28;20412;-90
2021/03/17 04:16:33;;;;;;;6.70;3.93;;;2.70;99.90;;;;;;5055947;28;20458;-90
2021/03/17 04:19:01;;;;;;;4.27;3.37;;;2.60;99.90;;;;;;5055032;28;20451;-94
2021/03/17 04:21:30;;;;;;;4.77;4.03;;;2.70;99.90;;;;;;5058987;22;20559;-93
2021/03/17 04:24:00;;;;;;;4.90;3.90;;;2.70;99.90;;;;;;5056463;28;20447;-91
2021/03/17 04:26:29;;;;;;;6.37;4.10;;;2.70;99.90;;;;;;5054900;28;20503;-93
2021/03/17 04:28:57;;;;;;;5.77;4.50;;;2.70;99.90;;;;;;5052136;28;20444;-91
2021/03/17 04:31:24;;;;;;;6.77;4.97;;;;;;;;;;5054464;28;20455;-90
2021/03/17 04:33:55;;;;;;;6.33;5.07;;;2.80;99.90;;;;;;5062370;22;20483;-89
2021/03/17 04:36:22;;;;;;;7.57;5.40;;;;;;;;;;5054680;28;20438;-92
2021/03/17 04:38:49;;;;;;;7.47;5.47;;;2.60;99.90;;;;;;5053409;28;20432;-90
2021/03/17 04:41:18;;;;;;;7.43;5.97;;;2.70;99.90;;;;;;5059304;22;20516;-89
2021/03/17 04:43:45;;;;;;;8.30;6.47;;;2.70;99.90;;;;;;5073957;22;20483;-88
2021/03/17 04:46:12;;;;;;;9.00;5.60;;;2.70;99.90;;;;;;5056321;28;20499;-90
2021/03/17 04:48:44;;;;;;;7.60;6.20;;;2.70;99.90;;;;;;5062562;22;21005;-91
2021/03/17 04:51:15;;;;;;;8.87;6.80;;;2.70;99.90;;;;;;5063822;22;20475;-91
2021/03/17 04:53:42;;;;;;;8.43;6.80;;;;;;;;;;5063309;22;20487;-87
2021/03/17 04:56:09;;;;;;;9.20;6.33;;;;;;;;;;5056629;28;20432;-89
2021/03/17 04:58:39;;;;;;;7.87;6.20;;;2.70;99.90;;;;;;5064982;22;20479;31
2021/03/17 05:01:11;;;;;;;8.90;6.73;;;2.70;99.90;;;;;;5012751;22;20583;-88
2021/03/17 05:03:39;;;;;;;8.60;7.17;;;2.70;99.90;;;;;;5063989;22;20470;-89
2021/03/17 05:06:07;;;;;;;9.03;7.00;;;2.80;99.90;;;;;;5055168;28;20453;-88
2021/03/17 05:08:36;;;;;;;9.47;7.93;;;2.80;99.90;;;;;;5050594;28;20443;-91
2021/03/17 05:11:04;;;;;;;11.13;8.53;;;2.80;99.90;;;;;;5055389;28;20427;-88
2021/03/17 05:13:31;;;;;;;11.43;8.03;;;;;;;;;;5055132;28;20793;-87
2021/03/17 05:15:59;;;;;;;11.10;6.80;;;2.80;99.90;;;;;;5063067;22;20498;-89
2021/03/17 05:18:30;;;;;;;11.00;8.10;;;2.90;99.90;;;;;;5062780;22;20487;-90
2021/03/17 05:20:59;;;;;;;10.60;8.20;;;2.80;99.90;;;;;;5087919;22;20517;-88
2021/03/17 05:23:31;;;;;;;9.13;7.93;;;2.80;99.90;;;;;;5063699;22;20542;-89
2021/03/17 05:25:59;;;;;;;9.03;7.43;;;2.80;99.90;;;;;;5061720;22;20478;-89
2021/03/17 05:28:26;;;;;;;11.70;9.07;;;2.80;99.90;;;;;;5057697;28;21001;-87
2021/03/17 05:30:54;;;;;;;10.77;8.53;;;2.90;99.90;;;;;;5062721;22;20498;-88
2021/03/17 05:33:30;;;;;;;11.23;8.97;;;2.80;99.90;;;;;;5056254;22;20513;-88
2021/03/17 05:36:01;;;;;;;10.93;8.30;;;2.80;99.90;;;;;;5044317;28;20442;-90
2021/03/17 05:38:28;;;;;;;12.57;9.57;;;;;;;;;;5049473;28;20490;-87
2021/03/17 05:40:57;;;;;;;12.53;9.10;;;2.90;99.90;;;;;;5047515;28;20451;-90
2021/03/17 05:43:30;;;;;;;12.30;9.93;;;;;;;;;;5048229;28;20458;-89
2021/03/17 05:45:57;;;;;;;13.23;9.40;;;2.90;99.90;;;;;;5051784;28;20510;-90
2021/03/17 05:48:25;;;;;;;11.70;9.20;;;2.90;99.90;;;;;;5042122;28;20498;-94
2021/03/17 05:50:52;;;;;;;13.57;10.27;;;;;;;;;;5043317;28;20453;-91
2021/03/17 05:53:19;;;;;;;15.17;10.77;;;3.20;99.90;;;;;;5052539;28;20466;-93
2021/03/17 05:55:46;;;;;;;16.77;10.50;;;;;;;;;;5042990;28;20923;-92
2021/03/17 05:58:12;;;;;;;14.83;11.47;;;3.00;99.90;;;;;;5039931;28;20429;-91
2021/03/17 06:00:39;;;;;;;14.70;9.80;;;;;;;;;;5046065;28;20449;-94
2021/03/17 06:03:07;;;;;;;14.97;11.87;;;2.90;99.90;;;;;;5036907;28;20443;-93
2021/03/17 06:05:34;;;;;;;16.57;10.97;;;2.90;99.90;;;;;;5035631;28;20447;-94
2021/03/17 06:08:05;;;;;;;17.57;12.30;;;3.00;99.90;;;;;;5047734;28;20998;-92
2021/03/17 06:10:33;;;;;;;18.07;12.50;;;3.00;99.90;;;;;;5039928;28;20455;-91
2021/03/17 06:13:03;;;;;;;17.23;12.43;;;3.10;99.90;;;;;;5051387;22;20466;-86
2021/03/17 06:15:30;;;;;;;15.33;11.53;;;;;;;;;;5076080;28;20434;-87
2021/03/17 06:17:59;;;;;;;19.30;12.00;;;2.70;99.90;;;;;;5068562;28;20496;-91
2021/03/17 06:20:27;;;;;;;15.40;11.43;;;3.10;99.90;;;;;;5056299;28;20450;-89
2021/03/17 06:22:53;;;;;;;17.80;13.80;;;3.40;99.90;;;;;;5059539;28;20796;-89
2021/03/17 06:25:21;;;;;;;20.50;11.73;;;;;;;;;;5061062;28;20443;-89
2021/03/17 06:27:52;;;;;;;16.70;11.27;;;3.20;99.90;;;;;;5056647;28;20487;-91
2021/03/17 06:30:20;;;;;;;14.00;10.97;;;3.00;99.90;;;;;;5066576;28;20447;-90
2021/03/17 06:32:46;;;;;;;18.00;12.13;;;2.60;99.90;;;;;;5065669;28;20433;-92
2021/03/17 06:35:20;;;;;;;14.90;11.10;;;3.10;99.90;;;;;;5062646;28;20438;-90
2021/03/17 06:37:46;;;;;;;14.00;10.43;;;3.10;99.90;;;;;;5065698;28;20810;-87
2021/03/17 06:40:28;;;;;;;16.90;10.97;;;2.90;99.90;;;;;;5069848;28;20867;-91
2021/03/17 06:43:02;;;;;;;16.10;11.10;;;3.20;99.90;;;;;;5062182;28;20445;-86
2021/03/17 06:45:30;;;;;;;18.50;11.93;;;2.90;99.90;;;;;;5014130;28;20449;-87
2021/03/17 06:47:58;;;;;;;15.73;11.60;;;3.00;99.90;;;;;;5065004;28;20488;-89
2021/03/17 06:50:33;;;;;;;14.90;10.97;;;3.00;99.90;;;;;;5066695;28;20442;-90
2021/03/17 06:53:00;;;;;;;15.97;10.33;;;;;;;;;;5064635;28;20445;-91
2021/03/17 06:55:27;;;;;;;13.60;10.00;;;;;;;;;;5068960;28;20448;-94
2021/03/17 06:57:55;;;;;;;14.50;9.20;;;3.00;99.90;;;;;;5062668;28;20448;-87
2021/03/17 07:00:32;;;;;;;15.63;10.37;;;2.80;99.90;;;;;;5066551;28;20437;-87
2021/03/17 07:03:00;;;;;;;14.43;11.10;;;2.90;99.90;;;;;;5063786;28;20974;-92
2021/03/17 07:05:37;;;;;;;15.07;9.77;;;2.90;99.90;;;;;;5068677;28;20442;-93
2021/03/17 07:08:04;;;;;;;14.83;10.03;;;2.90;99.90;;;;;;5066290;28;20553;-91
2021/03/17 07:10:33;;;;;;;12.60;9.00;;;2.80;99.90;;;;;;5068336;28;20466;-94
2021/03/17 07:13:02;;;;;;;15.63;10.50;;;2.80;99.90;;;;;;5066023;28;20454;-90
2021/03/17 07:15:29;;;;;;;15.33;10.47;;;2.70;99.90;;;;;;5064059;28;20841;-88
2021/03/17 07:18:12;;;;;;;12.77;9.87;;;2.80;99.90;;;;;;5067749;28;20480;-90
2021/03/17 07:20:44;;;;;;;16.33;10.10;;;2.90;99.90;;;;;;5065469;28;20983;-88
2021/03/17 07:23:27;;;;;;;17.50;10.97;;;2.80;99.90;;;;;;5071073;28;20433;-93
2021/03/17 07:26:17;;;;;;;17.00;10.47;;;2.90;99.90;;;;;;5073545;28;20449;-93
2021/03/17 07:28:56;;;;;;;13.50;10.47;;;3.20;99.90;;;;;;5063583;22;21009;-92
2021/03/17 07:31:23;;;;;;;15.40;9.87;;;3.20;99.90;;;;;;5038368;28;20821;-93
2021/03/17 07:33:51;;;;;;;18.07;11.53;;;3.20;99.90;;;;;;5038968;28;20452;-94
2021/03/17 07:36:34;;;;;;;13.93;10.20;;;3.20;99.90;;;;;;5036526;28;20501;-91
2021/03/17 07:39:11;;;;;;;16.30;10.63;;;3.10;99.90;;;;;;5034774;28;20475;-91
2021/03/17 07:41:38;;;;;;;14.33;9.53;;;3.40;99.90;;;;;;5036901;28;20455;-91
2021/03/17 07:44:09;;;;;;;16.13;10.37;;;3.30;99.90;;;;;;5038523;28;20474;-94
2021/03/17 07:46:36;;;;;;;16.57;10.77;;;3.40;99.90;;;;;;5054107;28;20446;-90
2021/03/17 07:49:06;;;;;;;15.03;10.17;;;3.40;99.90;;;;;;5057520;28;20469;-88
2021/03/17 07:51:36;;;;;;;17.23;11.03;;;3.40;99.90;;;;;;5057874;28;20534;-87
2021/03/17 07:54:05;;;;;;;16.40;11.27;;;3.40;99.90;;;;;;5058320;28;20465;-90
2021/03/17 07:56:32;;;;;;;15.07;10.47;;;3.50;99.90;;;;;;5057316;28;20442;-93
2021/03/17 07:58:59;;;;;;;15.83;9.90;;;3.60;99.90;;;;;;5061482;28;20438;-94
2021/03/17 08:01:27;;;;;;;15.93;10.23;;;3.60;99.90;;;;;;5058770;28;20962;-94
2021/03/17 08:03:54;;;;;;;13.73;10.10;;;3.90;99.90;;;;;;5059960;28;20435;-92
2021/03/17 08:06:21;;;;;;;12.60;9.73;;;4.00;99.90;;;;;;5059426;28;20500;-94
2021/03/17 08:08:49;;;;;;;14.20;9.87;;;4.10;99.90;;;;;;5056731;28;20490;-95
2021/03/17 08:11:17;;;;;;;13.33;9.03;;;4.30;99.90;;;;;;5057552;28;20956;-89
2021/03/17 08:13:46;;;;;;;13.43;9.17;;;5.00;99.90;;;;;;5030802;28;20452;-93
2021/03/17 08:16:17;;;;;;;12.70;9.70;;;4.80;99.90;;;;;;5037357;28;20440;-90
2021/03/17 08:18:53;;;;;;;14.13;10.20;;;4.70;99.90;;;;;;5036490;28;20450;-93
2021/03/17 08:21:47;;;;;;;13.43;9.50;;;4.90;99.90;;;;;;5018450;28;20448;-90
2021/03/17 08:24:41;;;;;;;12.83;8.37;;;5.00;99.90;;;;;;5030610;28;20489;-89
2021/03/17 08:27:26;;;;;;;11.53;7.90;;;5.20;99.90;;;;;;5032450;28;20485;-90
2021/03/17 08:30:11;;;;;;;12.97;8.73;;;5.20;99.90;;;;;;5036694;28;21020;-87
2021/03/17 08:33:01;;;;;;;12.40;7.50;;;5.30;99.90;;;;;;5038235;28;20512;-90
2021/03/17 08:36:07;;;;;;;12.87;7.00;;;5.40;99.90;;;;;;5034766;28;20451;-85
2021/03/17 08:38:54;;;;;;;9.53;5.40;;;5.40;99.90;;;;;;5034441;28;20526;-85
2021/03/17 08:41:52;;;;;;;8.13;5.17;;;5.60;99.90;;;;;;5034095;28;20497;-86
2021/03/17 08:44:19;;;;;;;9.23;5.63;;;5.50;99.90;;;;;;5034787;28;20961;-85
2021/03/17 08:46:46;;;;;;;7.30;5.57;;;5.60;99.90;;;;;;5034541;28;20876;-86
2021/03/17 08:49:14;;;;;;;6.13;4.80;;;5.80;99.90;;;;;;5034483;28;20865;-84
2021/03/17 08:52:12;;;;;;;7.13;4.70;;;5.90;99.90;;;;;;5034063;28;20459;-85
2021/03/17 08:55:05;;;;;;;7.63;5.70;;;5.90;99.90;;;;;;5034216;28;20455;-85
2021/03/17 08:58:01;;;;;;;6.50;4.93;;;5.90;99.90;;;;;;5034356;28;20504;-84
2021/03/17 09:00:59;;;;;;;9.40;5.60;;;6.30;99.90;;;;;;5034213;28;20535;-87
2021/03/17 09:03:50;;;;;;;8.40;6.10;;;7.10;99.90;;;;;;5034540;28;20461;-87
2021/03/17 09:06:19;;;;;;;7.33;5.33;;;7.90;99.90;;;;;;5007151;28;20492;-89
2021/03/17 09:08:58;;;;;;;4.80;3.80;;;7.90;99.90;;;;;;4999129;28;20497;-86
2021/03/17 09:12:01;;;;;;;4.10;3.47;;;9.40;99.90;;;;;;4996896;28;20448;-88
2021/03/17 09:14:35;;;;;;;7.13;5.03;;;9.60;99.90;;;;;;5022533;28;20451;-87
2021/03/17 09:17:24;;;;;;;4.47;4.07;;;9.80;99.90;;;;;;5032662;28;20459;-89
2021/03/17 09:20:23;;;;;;;4.47;4.00;;;10.10;99.90;;;;;;5015674;28;20468;-89
2021/03/17 09:23:07;;;;;;;6.00;4.43;;;10.80;99.90;;;;;;5010757;28;20461;-87
2021/03/17 09:25:38;;;;;;;5.70;4.80;;;10.90;99.90;;;;;;5013558;28;20993;-89
2021/03/17 09:28:07;;;;;;;4.50;3.70;;;11.10;99.90;;;;;;5014371;28;20502;-90
2021/03/17 09:30:41;;;;;;;5.10;3.70;;;10.30;99.30;;;;;;5027520;28;20447;-89
2021/03/17 09:33:11;;;;;;;4.57;3.30;;;8.20;99.90;;;;;;5033768;28;20451;-87
2021/03/17 09:35:38;;;;;;;3.80;3.40;;;8.40;99.90;;;;;;5034132;28;20435;-89
2021/03/17 09:38:09;;;;;;;6.40;3.80;;;7.10;99.90;;;;;;5034367;28;20483;-88
2021/03/17 09:40:42;;;;;;;4.10;3.70;;;6.90;99.90;;;;;;5033686;28;20447;-87
2021/03/17 09:43:43;;;;;;;4.43;3.50;;;7.30;99.90;;;;;;5034742;28;20459;-88
2021/03/17 09:46:24;;;;;;;4.00;3.30;;;7.30;99.90;;;;;;5033797;28;20440;-85
2021/03/17 09:48:52;;;;;;;4.70;3.30;;;7.20;99.90;;;;;;5031790;28;20490;-87
2021/03/17 09:51:20;;;;;;;4.37;3.97;;;7.30;99.90;;;;;;5009967;28;20475;-86
2021/03/17 09:53:49;;;;;;;3.03;2.73;;;9.00;99.90;;;;;;5014168;28;20827;-91
2021/03/17 09:56:31;;;;;;;3.57;2.40;;;9.10;99.90;;;;;;5004790;28;20474;-87
2021/03/17 09:59:17;;;;;;;2.77;2.53;;;8.80;99.90;;;;;;5002471;28;20449;-87
2021/03/17 10:01:54;;;;;;;3.80;2.73;;;8.70;99.90;;;;;;5004924;28;20441;-86
2021/03/17 10:04:31;;;;;;;4.27;3.40;;;8.30;99.90;;;;;;5002624;28;20978;-86
2021/03/17 10:07:06;;;;;;;2.80;2.33;;;8.30;99.90;;;;;;5005882;28;20520;-90
2021/03/17 10:09:39;;;;;;;3.53;3.23;;;9.40;99.90;;;;;;5006263;28;20452;-86
2021/03/17 10:12:14;;;;;;;5.03;2.70;;;10.10;99.90;;;;;;5006264;28;20454;-88
2021/03/17 10:14:50;;;;;;;5.00;3.90;;;10.30;99.90;;;;;;5008914;28;20448;-90
2021/03/17 10:17:28;;;;;;;5.30;2.80;;;10.80;96.70;;;;;;5009281;28;20445;-88
2021/03/17 10:19:57;;;;;;;4.63;2.90;;;11.20;97.20;;;;;;5013590;28;20479;-88
2021/03/17 10:22:26;;;;;;;3.37;3.00;;;11.80;93.00;;;;;;5014162;28;20460;-93
2021/03/17 10:24:56;;;;;;;4.47;2.63;;;10.80;92.50;;;;;;5018052;28;20444;-90
2021/03/17 10:27:25;;;;;;;6.60;2.90;;;10.50;94.00;;;;;;5017977;28;20511;-93
2021/03/17 10:29:58;;;;;;;3.20;2.80;;;9.60;97.20;;;;;;5018305;28;20809;-91
2021/03/17 10:32:25;;;;;;;3.80;3.07;;;8.60;97.50;;;;;;5017736;28;20440;-90
2021/03/17 10:34:52;;;;;;;3.80;2.83;;;8.20;99.70;;;;;;5018310;28;20452;-92
2021/03/17 10:37:20;;;;;;;3.73;2.40;;;8.30;99.70;;;;;;5012007;28;20468;-87
2021/03/17 10:39:50;;;;;;;4.13;2.70;;;8.00;99.90;;;;;;4997544;28;20460;-90
2021/03/17 10:42:19;;;;;;;2.50;2.30;;;7.80;99.00;;;;;;4998703;28;20472;-91
2021/03/17 10:45:00;;;;;;;2.30;2.07;;;8.10;99.90;;;;;;5007546;28;20481;-88
2021/03/17 10:47:26;;;;;;;3.87;2.40;;;8.90;99.90;;;;;;5017686;28;20534;-89
2021/03/17 10:49:53;;;;;;;2.80;1.73;;;10.00;97.30;;;;;;5017308;28;20456;-85
2021/03/17 10:52:19;;;;;;;2.13;1.90;;;10.40;98.80;;;;;;5018117;28;20456;-85
2021/03/17 10:54:46;;;;;;;2.00;1.70;;;;;;;;;;5016219;28;20456;-91
2021/03/17 10:57:20;;;;;;;4.60;1.97;;;10.20;94.70;;;;;;5018136;28;20521;-92
2021/03/17 10:59:47;;;;;;;1.57;1.43;;;10.10;96.70;;;;;;5018524;28;20459;-89
2021/03/17 11:02:20;;;;;;;3.00;1.73;;;9.90;95.70;;;;;;5018449;28;20935;-90
2021/03/17 11:05:10;;;;;;;4.80;1.87;;;9.70;96.00;;;;;;5018855;28;20542;-90
2021/03/17 11:08:09;;;;;;;2.23;2.00;;;9.40;96.20;;;;;;5017713;28;20498;-91
2021/03/17 11:10:42;;;;;;;2.33;2.00;;;9.10;96.20;;;;;;5017192;28;20728;-86
2021/03/17 11:13:29;;;;;;;2.80;1.97;;;8.40;96.40;;;;;;5018003;28;20448;-91
2021/03/17 11:15:58;;;;;;;3.50;1.83;;;7.80;98.20;;;;;;5011755;28;20453;-85
2021/03/17 11:18:27;;;;;;;4.00;1.70;;;7.40;98.20;;;;;;4997488;28;20523;-87
2021/03/17 11:20:55;;;;;;;5.30;2.67;;;7.50;99.50;;;;;;4998235;28;20528;-89
2021/03/17 11:23:25;;;;;;;2.20;1.93;;;6.90;99.40;;;;;;4998803;28;20480;-90
2021/03/17 11:25:53;;;;;;;2.40;2.03;;;6.90;99.90;;;;;;5005984;28;20464;-90
2021/03/17 11:28:21;;;;;;;3.20;2.30;;;6.90;99.90;;;;;;5017144;28;20919;-91
2021/03/17 11:30:51;;;;;;;2.80;2.40;;;6.90;99.90;;;;;;5017549;28;20444;-89
2021/03/17 11:33:20;;;;;;;3.17;1.87;;;6.70;99.90;;;;;;5015094;28;20455;-89
2021/03/17 11:35:48;;;;;;;2.43;2.23;;;6.90;99.90;;;;;;5016672;28;20467;-89
2021/03/17 11:38:14;;;;;;;4.47;2.87;;;6.60;99.90;;;;;;5016268;28;20508;-90
2021/03/17 11:40:41;;;;;;;5.53;2.70;;;6.50;99.90;;;;;;5015676;28;20444;-90
2021/03/17 11:43:10;;;;;;;2.23;2.03;;;6.70;99.90;;;;;;5017354;28;20939;-90
2021/03/17 11:45:37;;;;;;;3.20;2.80;;;6.20;99.90;;;;;;5018112;28;20452;-93
2021/03/17 11:48:05;;;;;;;4.23;3.03;;;6.20;99.90;;;;;;5018132;28;20498;-89
2021/03/17 11:50:33;;;;;;;3.20;2.60;;;5.90;99.90;;;;;;5016344;28;20464;-89
2021/03/17 11:52:59;;;;;;;8.47;3.70;;;5.90;99.90;;;;;;5015971;28;20449;-89
2021/03/17 11:55:26;;;;;;;4.60;3.83;;;5.30;99.90;;;;;;5014926;28;20469;-90
2021/03/17 11:58:02;;;;;;;4.07;3.00;;;5.50;99.90;;;;;;5016364;28;20452;-90
2021/03/17 12:00:28;;;;;;;4.63;3.47;;;5.40;99.90;;;;;;5013418;28;20464;-87
2021/03/17 12:02:54;;;;;;;4.17;3.27;;;5.20;99.90;;;;;;5015610;28;20772;-88
2021/03/17 12:05:21;;;;;;;5.07;3.77;;;4.90;99.90;;;;;;5015151;28;21078;-86
2021/03/17 12:07:48;;;;;;;4.87;3.10;;;5.00;99.90;;;;;;5015569;28;20511;-89
2021/03/17 12:10:16;;;;;;;7.33;5.20;;;4.80;99.90;;;;;;5014382;28;20449;-88
2021/03/17 12:12:43;;;;;;;7.80;5.60;;;5.10;99.90;;;;;;5014975;28;20448;-88
2021/03/17 12:15:11;;;;;;;12.60;5.10;;;5.00;99.90;;;;;;5014989;28;20459;-86
2021/03/17 12:17:39;;;;;;;6.70;5.30;;;5.10;99.90;;;;;;5015323;28;20449;-86
2021/03/17 12:20:07;;;;;;;8.57;6.23;;;4.90;99.90;;;;;;5014816;28;20448;-89
2021/03/17 12:22:34;;;;;;;9.07;6.47;;;4.70;99.90;;;;;;5015172;28;20532;-87
2021/03/17 12:25:01;;;;;;;13.03;5.57;;;5.00;99.90;;;;;;5013252;28;20452;-88
2021/03/17 12:27:29;;;;;;;8.70;6.33;;;4.30;99.90;;;;;;5013770;28;20483;-87
2021/03/17 12:29:55;;;;;;;9.10;6.07;;;4.20;99.90;;;;;;5013258;28;20486;-89
2021/03/17 12:32:21;;;;;;;8.43;6.33;;;4.20;99.90;;;;;;5010949;28;20476;-88
2021/03/17 12:34:47;;;;;;;8.50;5.20;;;4.30;99.90;;;;;;5014919;28;20484;-89
2021/03/17 12:37:14;;;;;;;9.50;6.17;;;4.40;99.90;;;;;;5014942;28;20807;-88
2021/03/17 12:39:41;;;;;;;7.93;6.10;;;4.50;99.90;;;;;;5014952;28;20507;-91
2021/03/17 12:42:08;;;;;;;9.70;6.10;;;4.60;99.90;;;;;;5015522;28;20452;-87
2021/03/17 12:44:36;;;;;;;7.17;5.70;;;4.70;99.90;;;;;;5014844;28;20854;-89
2021/03/17 12:47:04;;;;;;;7.90;5.80;;;4.90;99.90;;;;;;5014476;28;20463;-94
2021/03/17 12:49:30;;;;;;;7.57;6.10;;;5.00;99.90;;;;;;5014750;28;20539;-86
2021/03/17 12:51:57;;;;;;;10.20;7.40;;;;;;;;;;5012367;28;20452;-87
2021/03/17 12:54:23;;;;;;;8.90;7.00;;;5.10;99.90;;;;;;5015695;28;20465;-88
2021/03/17 12:56:50;;;;;;;9.60;6.87;;;5.10;99.90;;;;;;5014114;28;20453;-87
2021/03/17 12:59:17;;;;;;;9.40;6.83;;;5.30;99.90;;;;;;5015776;28;20530;-88
2021/03/17 13:01:44;;;;;;;7.70;6.40;;;5.30;99.90;;;;;;5015856;28;20448;-86
2021/03/17 13:04:10;;;;;;;9.80;6.03;;;5.50;99.90;;;;;;5015382;28;20490;-86
2021/03/17 13:06:38;;;;;;;7.17;5.30;;;5.50;99.90;;;;;;5015601;28;20444;-90
2021/03/17 13:09:06;;;;;;;8.17;6.50;;;5.40;99.90;;;;;;5014374;28;20492;-87
2021/03/17 13:11:34;;;;;;;8.13;5.90;;;5.20;99.90;;;;;;5012909;28;20452;-87
2021/03/17 13:14:01;;;;;;;7.80;6.10;;;5.00;99.90;;;;;;5015206;28;20944;-87
2021/03/17 13:16:29;;;;;;;7.03;5.63;;;4.90;99.90;;;;;;5014008;28;20947;-88
2021/03/17 13:18:55;;;;;;;7.57;5.57;;;4.80;99.90;;;;;;5014002;28;20480;-85
2021/03/17 13:21:22;;;;;;;6.67;5.30;;;4.60;99.90;;;;;;5013889;28;20951;-87
2021/03/17 13:23:48;;;;;;;6.03;5.37;;;4.30;99.90;;;;;;5013904;28;20951;-87
2021/03/17 13:26:15;;;;;;;6.40;5.50;;;4.30;99.90;;;;;;5009279;28;20452;-85
2021/03/17 13:28:42;;;;;;;6.80;6.00;;;4.30;99.90;;;;;;5013005;28;20504;-86